Latest Weather Observations for Viewbank

IDV60801

Issued at 4:02 pm EDT Saturday 31 January 2015 (issued every 30 minutes, with the page automatically refreshed every 10 minutes)

About weather observations | Map of weather stations | Latest weather observations for VIC | Other Formats
Station Details ID: 086068 Name: VIEWBANK Lat: -37.74 Lon: 145.10 Height: 66.1 m
Data from the previous 72 hours. | See also: Recent months at Viewbank
Date/Time
EDT
Temp
°C
App
Temp
°C
Dew
Point
Rel
Hum
%
Delta-T
°C
Wind Press
QNH
hPa
Press
MSL
hPa
Rain
since 9 am
mm
Dir
 
Spd
km/h
Gust
km/h
Spd
kts
Gust
kts
31/04:00pm 21.2 17.6 10.4 50 5.9 SSW 20 39 11 21 1011.6 1011.4 0.0
31/03:30pm 19.1 14.8 10.6 58 4.6 SSW 24 39 13 21 1011.7 1011.5 0.0
31/03:00pm 18.9 14.8 11.5 62 4.1 SW 24 39 13 21 1011.7 1011.5 0.0
31/02:30pm 19.5 15.4 11.3 59 4.5 SSW 24 35 13 19 1011.7 1011.5 0.0
31/02:00pm 19.9 16.3 10.6 55 5.1 SSW 20 39 11 21 1011.7 1011.5 0.0
31/01:30pm 19.3 15.0 10.6 57 4.7 SSW 24 37 13 20 1011.7 1011.5 0.0
31/01:00pm 21.3 17.6 12.7 58 4.9 SW 24 39 13 21 1011.8 1011.6 0.0
31/12:30pm 19.1 15.8 11.7 62 4.1 SW 20 37 11 20 1012.0 1011.8 0.0
31/12:00pm 18.4 14.9 12.2 67 3.4 SW 22 33 12 18 1011.9 1011.7 0.0
31/11:30am 20.0 16.4 13.0 64 4.0 SW 24 37 13 20 1011.7 1011.5 0.0
31/11:00am 18.3 15.2 12.1 67 3.4 SW 20 35 11 19 1011.8 1011.6 0.0
31/10:30am 18.3 15.8 12.3 68 3.3 SW 17 28 9 15 1011.8 1011.6 0.0
31/10:00am 17.7 15.3 12.6 72 2.8 SW 17 22 9 12 1011.9 1011.7 0.0
31/09:30am 15.9 14.6 12.5 80 1.9 SW 11 20 6 11 1011.9 1011.7 0.0
31/09:00am 15.4 14.5 11.2 76 2.3 WSW 7 13 4 7 1012.1 1011.9 0.0
31/08:30am 15.2 13.9 11.4 78 2.0 WSW 9 15 5 8 1012.1 1011.9 0.0
31/08:00am 14.7 13.5 11.5 81 1.7 WSW 9 17 5 9 1012.1 1011.9 0.0
31/07:30am 14.0 12.7 11.2 83 1.5 WSW 9 17 5 9 1011.9 1011.7 0.0
31/07:00am 13.8 12.6 11.5 86 1.2 W 9 15 5 8 1011.7 1011.5 0.0
31/06:30am 13.6 12.7 11.5 87 1.1 W 7 9 4 5 1011.5 1011.3 0.0
31/06:00am 13.7 13.0 11.4 86 1.2 W 6 9 3 5 1011.3 1011.1 0.0
31/05:30am 13.8 12.8 11.1 84 1.4 W 7 11 4 6 1011.2 1011.0 0.0
31/05:00am 12.7 11.6 9.9 83 1.4 WNW 6 9 3 5 1011.2 1011.0 0.0
31/04:30am 13.0 11.9 9.8 81 1.6 W 6 9 3 5 1011.3 1011.1 0.0
31/04:00am 12.8 12.3 9.3 79 1.8 NW 2 6 1 3 1011.4 1011.2 0.0
31/03:30am 13.7 13.3 9.6 76 2.1 NW 2 7 1 4 1011.7 1011.5 0.0
31/03:00am 12.9 11.7 9.4 79 1.8 NW 6 7 3 4 1011.9 1011.7 0.0
31/02:30am 12.4 11.3 8.5 77 1.9 NNE 4 9 2 5 1012.0 1011.8 0.0
31/02:00am 13.1 12.5 8.8 75 2.2 NE 2 6 1 3 1012.5 1012.2 0.0
31/01:30am 13.4 13.2 8.9 74 2.3 CALM 0 4 0 2 1012.6 1012.3 0.0
31/01:00am 13.5 13.3 9.0 74 2.3 CALM 0 0 0 0 1012.8 1012.5 0.0
31/12:30am 13.4 13.2 8.9 74 2.3 CALM 0 0 0 0 1012.9 1012.6 0.0
31/12:00am 13.5 12.8 8.6 72 2.5 SSE 2 6 1 3 1013.0 1012.7 0.0
 
Date/Time
EDT
Temp
°C
App
Temp
°C
Dew
Point
Rel
Hum
%
Delta-T
°C
Wind Press
QNH
hPa
Press
MSL
hPa
Rain
since 9 am
mm
Dir
 
Spd
km/h
Gust
km/h
Spd
kts
Gust
kts
30/11:30pm 14.0 13.6 8.4 69 2.8 CALM 0 6 0 3 1013.3 1013.0 0.0
30/11:00pm 14.4 12.3 8.1 66 3.2 S 9 11 5 6 1013.5 1013.2 0.0
30/10:30pm 14.4 12.4 7.2 62 3.5 SSW 7 11 4 6 1013.6 1013.3 0.0
30/10:00pm 15.2 13.2 7.0 58 4.0 S 7 11 4 6 1013.6 1013.3 0.0
30/09:30pm 15.8 13.4 7.0 56 4.3 S 9 17 5 9 1013.6 1013.3 0.0
30/09:00pm 16.2 13.5 7.2 55 4.5 SSE 11 19 6 10 1013.2 1012.9 0.0
30/08:30pm 16.9 14.0 6.7 51 5.0 SSE 11 20 6 11 1013.2 1012.9 0.0
30/08:00pm 17.8 14.1 6.3 47 5.7 S 15 22 8 12 1013.1 1012.8 0.0
30/07:30pm 18.6 15.8 6.8 46 5.9 SSE 11 24 6 13 1013.2 1012.9 0.0
30/07:00pm 17.8 14.8 7.5 51 5.2 S 13 22 7 12 1013.2 1012.9 0.0
30/06:30pm 18.0 15.0 7.7 51 5.2 S 13 24 7 13 1013.1 1012.8 0.0
30/06:00pm 18.1 14.3 7.5 50 5.4 SSW 17 26 9 14 1013.2 1012.9 0.0
30/05:30pm 17.9 13.5 7.6 51 5.2 SSW 20 33 11 18 1013.4 1013.1 0.0
30/05:00pm 18.7 14.1 6.5 45 6.1 SSW 20 35 11 19 1013.5 1013.2 0.0
30/04:30pm 19.1 14.1 6.6 44 6.3 S 22 35 12 19 1013.7 1013.4 0.0
30/04:00pm 20.6 16.2 6.5 40 7.1 SW 19 32 10 17 1013.7 1013.4 0.0
30/03:30pm 20.5 16.4 6.1 39 7.2 SSE 17 33 9 18 1014.0 1013.7 0.0
30/03:00pm 20.8 14.9 5.6 37 7.6 SSW 26 43 14 23 1014.2 1013.9 0.0
30/02:30pm 20.6 16.5 6.2 39 7.2 S 17 33 9 18 1014.5 1014.2 0.0
30/02:00pm 21.1 15.6 5.9 37 7.6 SSW 24 39 13 21 1014.6 1014.3 0.0
30/01:30pm 20.9 16.3 6.4 39 7.3 SSW 20 30 11 16 1014.8 1014.5 0.0
30/01:00pm 20.2 15.9 7.9 45 6.4 SSW 20 39 11 21 1015.1 1014.8 0.0
30/12:30pm 18.2 13.8 7.6 50 5.4 SSW 20 30 11 16 1015.6 1015.3 0.0
30/12:00pm 18.6 14.9 8.0 50 5.4 SSW 17 24 9 13 1015.8 1015.5 0.0
30/11:30am 19.5 16.3 6.9 44 6.4 SSE 13 24 7 13 1015.9 1015.6 0.0
30/11:00am 19.0 15.1 7.1 46 6.0 S 17 28 9 15 1016.3 1016.1 0.0
30/10:30am 19.2 16.0 6.7 44 6.3 SSE 13 24 7 13 1016.5 1016.3 0.0
30/10:00am 18.4 14.8 6.6 46 5.9 SSE 15 28 8 15 1016.6 1016.4 0.0
30/09:30am 17.6 15.0 7.9 53 4.9 SE 11 28 6 15 1016.7 1016.5 0.0
30/09:00am 16.8 14.8 8.8 59 4.1 SSE 9 17 5 9 1016.7 1016.5 0.0
30/08:30am 15.5 14.3 10.3 71 2.7 SSE 7 17 4 9 1016.7 1016.5 0.0
30/08:00am 13.7 12.4 10.1 79 1.9 SSE 7 13 4 7 1016.5 1016.3 0.0
30/07:30am 13.1 11.8 10.1 82 1.6 SSE 7 13 4 7 1016.2 1016.0 0.0
30/07:00am 13.2 11.9 9.8 80 1.7 SSE 7 13 4 7 1016.0 1015.8 0.0
30/06:30am 13.4 12.1 10.0 80 1.8 S 7 11 4 6 1015.9 1015.6 0.0
30/06:00am 13.6 12.3 10.0 79 1.9 SSE 7 19 4 10 1016.0 1015.8 0.0
30/05:30am 13.4 12.1 10.0 80 1.8 SSE 7 15 4 8 1015.9 1015.6 0.0
30/05:00am 13.2 11.5 9.8 80 1.7 SSE 9 19 5 10 1015.8 1015.5 0.0
30/04:30am 13.2 11.5 10.0 81 1.7 S 9 13 5 7 1015.9 1015.6 0.0
30/04:00am 12.8 11.1 10.0 83 1.4 S 9 13 5 7 1016.1 1015.9 0.0
30/03:30am 12.2 11.7 9.4 83 1.4 S 2 6 1 3 1016.3 1016.1 0.0
30/03:00am 12.3 11.1 9.7 84 1.3 SSW 6 9 3 5 1016.7 1016.5 0.0
30/02:30am 12.3 10.5 9.3 82 1.5 SSW 9 13 5 7 1017.0 1016.8 0.0
30/02:00am 12.7 10.9 9.3 80 1.7 SSW 9 13 5 7 1017.1 1016.9 0.0
30/01:30am 13.0 11.7 9.1 77 2.0 SSW 6 9 3 5 1017.3 1017.1 0.0
30/01:00am 13.6 11.3 9.1 74 2.3 S 11 15 6 8 1017.6 1017.4 0.0
30/12:30am 13.9 12.3 8.9 72 2.5 SSE 7 9 4 5 1017.9 1017.7 0.0
30/12:00am 14.3 12.7 8.9 70 2.7 SSE 7 17 4 9 1018.0 1017.8 0.0
 
Date/Time
EDT
Temp
°C
App
Temp
°C
Dew
Point
Rel
Hum
%
Delta-T
°C
Wind Press
QNH
hPa
Press
MSL
hPa
Rain
since 9 am
mm
Dir
 
Spd
km/h
Gust
km/h
Spd
kts
Gust
kts
29/11:30pm 14.8 13.2 8.7 67 3.1 SSE 7 15 4 8 1018.2 1018.0 0.0
29/11:00pm 15.3 13.7 8.8 65 3.3 SE 7 17 4 9 1018.1 1017.9 0.0
29/10:30pm 15.9 13.8 9.6 66 3.3 ESE 11 20 6 11 1018.2 1018.0 0.0
29/10:00pm 16.2 13.6 9.4 64 3.5 SE 13 22 7 12 1018.2 1018.0 0.0
29/09:30pm 16.4 13.4 9.3 63 3.7 SE 15 28 8 15 1018.0 1017.8 0.0
29/09:00pm 16.5 14.3 9.4 63 3.7 ESE 11 20 6 11 1017.9 1017.7 0.0
29/08:30pm 17.3 13.9 9.2 59 4.2 E 17 28 9 15 1017.6 1017.4 0.0
29/08:00pm 18.5 15.1 9.3 55 4.8 SSE 17 30 9 16 1017.2 1017.0 0.0
29/07:30pm 18.8 15.3 8.7 52 5.3 SSE 17 32 9 17 1017.2 1017.0 0.0
29/07:00pm 19.4 15.4 8.1 48 5.8 SSE 19 35 10 19 1016.9 1016.7 0.0
29/06:30pm 19.3 15.4 8.6 50 5.6 SE 19 44 10 24 1016.9 1016.7 0.0
29/06:00pm 20.0 15.9 8.7 48 5.9 SSE 20 33 11 18 1016.8 1016.6 0.0
29/05:30pm 21.4 17.2 8.3 43 6.9 S 20 35 11 19 1016.9 1016.7 0.0
29/05:00pm 21.4 17.5 8.7 44 6.7 SSE 19 32 10 17 1017.2 1017.0 0.0
29/04:30pm 22.0 18.4 8.2 41 7.3 SSE 17 43 9 23 1017.4 1017.2 0.0
29/04:00pm 21.0 16.6 7.6 42 6.9 SSE 20 39 11 21 1017.5 1017.3 0.0
29/03:30pm 22.1 19.0 7.1 38 7.7 SSE 13 30 7 16 1017.6 1017.4 0.0
29/03:00pm 20.9 16.4 6.8 40 7.2 S 20 33 11 18 1017.9 1017.7 0.0
29/02:30pm 22.6 18.1 6.0 34 8.4 SSE 19 35 10 19 1018.2 1018.0 0.0
29/02:00pm 21.9 18.2 6.2 36 7.9 SSE 15 30 8 16 1018.5 1018.3 0.0
29/01:30pm 20.9 16.2 6.1 38 7.4 S 20 35 11 19 1018.7 1018.5 0.0
29/01:00pm 21.9 18.6 6.6 37 7.8 SSE 13 20 7 11 1019.2 1019.0 0.0
29/12:30pm 20.4 16.4 6.7 41 6.9 SSE 17 30 9 16 1019.5 1019.3 0.0
29/12:00pm 19.6 16.1 5.6 40 6.9 SSE 13 26 7 14 1019.8 1019.6 0.0
29/11:30am 20.7 17.7 7.7 43 6.7 SSE 13 22 7 12 1020.0 1019.8 0.0
29/11:00am 18.9 14.8 6.1 43 6.3 SSE 17 32 9 17 1020.4 1020.2 0.0
29/10:30am 18.9 15.2 6.1 43 6.3 SSE 15 22 8 12 1020.4 1020.2 0.0
29/10:00am 19.2 16.5 8.8 51 5.4 SE 13 28 7 15 1020.4 1020.2 0.0
29/09:30am 17.5 14.7 8.6 56 4.6 SSE 13 26 7 14 1020.7 1020.5 0.0
29/09:00am 16.6 14.2 8.6 59 4.1 SE 11 24 6 13 1020.7 1020.5 0.0
29/08:30am 15.4 13.5 9.1 66 3.2 SE 9 19 5 10 1020.5 1020.3 0.0
29/08:00am 13.7 11.8 9.2 74 2.3 S 9 17 5 9 1020.3 1020.1 0.0
29/07:30am 12.6 10.7 9.2 80 1.7 S 9 13 5 7 1020.1 1019.9 0.0
29/07:00am 11.5 9.6 8.9 84 1.3 S 9 13 5 7 1019.9 1019.7 0.0
29/06:30am 11.3 9.4 8.9 85 1.2 S 9 15 5 8 1019.6 1019.4 0.0
29/06:00am 11.6 9.7 9.0 84 1.3 S 9 15 5 8 1019.5 1019.3 0.0
29/05:30am 11.7 9.8 9.1 84 1.3 S 9 13 5 7 1019.1 1018.9 0.0
29/05:00am 11.8 10.2 8.8 82 1.5 S 7 13 4 7 1018.8 1018.6 0.0
29/04:30am 12.0 10.0 8.8 81 1.6 S 9 13 5 7 1018.9 1018.7 0.0
29/04:00am 12.5 10.6 9.0 79 1.8 S 9 15 5 8 1018.9 1018.7 0.0
29/03:30am 12.9 11.3 8.8 76 2.1 S 7 15 4 8 1018.9 1018.7 0.0
29/03:00am 13.4 11.7 8.5 72 2.4 S 7 11 4 6 1019.1 1018.9 0.0
29/02:30am 13.8 11.6 8.0 68 2.9 SSE 9 17 5 9 1019.2 1019.0 0.0
29/02:00am 14.3 11.5 8.5 68 2.9 ESE 13 22 7 12 1019.2 1019.0 0.0
29/01:30am 14.2 12.4 7.9 66 3.1 SSE 7 15 4 8 1019.5 1019.3 0.0
29/01:00am 14.5 12.6 7.5 63 3.5 SSE 7 13 4 7 1019.6 1019.4 0.0
29/12:30am 14.9 13.2 7.7 62 3.6 SE 6 11 3 6 1019.7 1019.5 0.0
29/12:00am 15.5 12.8 7.5 59 4.0 SE 11 19 6 10 1019.6 1019.4 0.0
 
Date/Time
EDT
Temp
°C
App
Temp
°C
Dew
Point
Rel
Hum
%
Delta-T
°C
Wind Press
QNH
hPa
Press
MSL
hPa
Rain
since 9 am
mm
Dir
 
Spd
km/h
Gust
km/h
Spd
kts
Gust
kts
28/11:30pm 16.1 13.1 7.6 57 4.3 ESE 13 28 7 15 1019.5 1019.3 0.0
28/11:00pm 16.6 13.6 7.5 55 4.6 ESE 13 24 7 13 1019.3 1019.1 0.0
28/10:30pm 17.2 13.8 7.5 53 4.9 SE 15 24 8 13 1019.3 1019.1 0.0
28/10:00pm 17.8 14.3 7.2 50 5.3 SE 15 33 8 18 1019.1 1018.9 0.0
28/09:30pm 18.4 14.8 6.9 47 5.8 ESE 15 28 8 15 1018.9 1018.7 0.0
28/09:00pm 19.1 15.1 6.6 44 6.3 ESE 17 37 9 20 1018.4 1018.2 0.0
28/08:30pm 19.7 16.9 7.1 44 6.4 SE 11 22 6 12 1018.1 1017.9 0.0
28/08:00pm 20.7 16.3 6.6 40 7.1 SE 19 37 10 20 1017.6 1017.4 0.0
28/07:30pm 21.7 18.0 6.4 37 7.8 ESE 15 32 8 17 1017.5 1017.3 0.0
28/07:00pm 22.4 18.4 6.6 36 8.1 SE 17 33 9 18 1017.2 1017.0 0.0
28/06:30pm 23.0 18.6 6.7 35 8.4 SE 19 35 10 19 1016.9 1016.7 0.0
28/06:00pm 23.0 18.5 7.1 36 8.2 SE 20 41 11 22 1016.6 1016.4 0.0
28/05:30pm 23.8 19.5 7.0 34 8.7 SE 19 37 10 20 1016.5 1016.3 0.0
28/05:00pm 24.1 19.9 7.3 34 8.8 SE 19 35 10 19 1016.5 1016.3 0.0
28/04:30pm 24.3 19.9 6.6 32 9.2 SE 19 37 10 20 1016.3 1016.1 0.0

Other Formats:

Comma delimited format used in spreadsheet applications
http://www.bom.gov.au/fwo/IDV60801/IDV60801.95874.axf

JavaScript Object Notation format (JSON) in row-major order
http://www.bom.gov.au/fwo/IDV60801/IDV60801.95874.json